Dauntless Aviation
Airports North America United States Colorado
98CO

NCMC HELIPORT

GREELEY, CO, USA

Airport Info
Suggest Updated Information for this Airport

Location

Latitude / Longitude: 40°24'53"N / 104°42'39"W
  40°24.8908'N / 104°42.6508'W
  40.4148 / -104.7108
Elevation: 4882.0 ft. (estimated)
Variation: 12E (1985)
From city: 00 miles N of GREELEY, CO

Operations

Facility use: Private
Sectional chart: DENVER
Control tower: no
Boundary ARTCC: DENVER
FSS: DENVER [1-800-WX-BRIEF]
Segmented circle: no

Communications

Nearby radio navigation aids

VOR radial/distance VOR name Freq Var
GLL 234oT/9.0 GILL VORTAC 114.20 13E
DVV 353oT/31.5 MILE HIGH VORTAC 114.70 11E
BJC 33oT/36.0 JEFFCO VOR/DME 115.40 11E
DEN 356oT/36.2 DENVER VOR/DME 117.90 11E
 
NDB name Hdg/Dist Freq Var ID

Services

Runway Information

Helipad H1

Dimensions: 40 x 40 ft.
Surface: PORTLAND CEMENT CONCRETE,NO SPECIAL SURFACE TREATMENT
Latitude: 40-24-53.4500N
Longitude: 104-42-39.0500W
Elevation: 4882.0 ft. ft.
 

Additional Remarks

Instrument Procedures

No published instrument procedures available
Topographic chart at:
Satellite photo at:
Airport distance calculator
From:
Weather Reports

METAR

KGXY
4.3nm NE
KGXY 201356Z AUTO 11017G22KT 10SM CLR 06/M03 A2994 RMK AO2 SLP132 T00611033
KFNL
14.1nm W
KFNL 201356Z AUTO 10SM CLR 04/M03 A2995 RMK AO2 SLP125 T00441033
KLMO
25.6nm SW
KLMO 201435Z AUTO 01010G14KT 10SM SCT120 08/M03 A2995 RMK AO2 T00781029
KEIK
28.5nm S
KEIK 201441Z AUTO 36007KT 10SM CLR 07/M04 A2998 RMK AO2 LTG DSNT NE T00701040
KBDU
33.1nm SW
KBDU 201430Z AUTO 03006KT 10SM BKN100 06/M03 A2993 RMK AO2
KDEN
34.0nm SE
KDEN 201353Z 26005KT 10SM SCT100 SCT150 BKN220 06/M04 A2992 RMK AO2 SLP094 T00561039

TAF

KDEN
34.0nm SE
KDEN 201415Z 2014/2118 25006KT P6SM SCT120 BKN220 FM201600 15018G26KT P6SM SCT090 BKN120 FM202000 12018G28KT P6SM VCSH SCT030 BKN050 OVC070 FM202300 09016G24KT P6SM -RA BKN030 OVC050 FM210300 06010KT 3SM -RA BR SCT006 OVC012 FM210600 34006KT 2SM -RASN BR OVC006 TEMPO 2106/2110 3/4SM -SN BR OVC003 FM211400 34006KT P6SM SCT006 OVC012
KBJC
35.7nm S
KBJC 201415Z 2014/2112 33011KT P6SM SCT050 BKN100 FM201900 07009KT P6SM VCSH SCT030 BKN050 OVC070 FM202200 02009KT P6SM -SHRA BKN030 OVC050 FM210100 05007KT 4SM -RA BR SCT006 OVC012 FM210400 03007KT 2SM -SN BR OVC006 TEMPO 2106/2110 3/4SM -SN BR OVC003
Safelog

 

Dauntless Aviation

© 2007-2018 Dauntless Aviation, all rights reserved
Information provided via PilotNav comes from a variety of official and unofficial data sources. As errors are possible, do not use PilotNav for primary flight planning purposes. Verify any information that you receive via PilotNav with current and canonical charts and other official documents. The material in this database is subject to database copyrights held by Dauntless Aviation and may not be copied without the express permission of Dauntless Aviation - licenses for use of part of all of this data are available for purchase; enquire via the Dauntless Aviation helpdesk. A number of mechanisms and markers exist in the database to protect against and identify infringement / copyright. Automated queries against this website are stictly prohibited, and all activity is logged and analyzed.